Wilmore, Kentucky
Current Conditions -  °F | °C
As of 3:54 PM on Saturday 22 Nov 2014 (Local Time) from KLEX Reporting Station
Scattered Clouds Scattered Clouds  
Wind Chill: 60°   Ceiling: Unl
Heat Index: 60°   Visibility: 10mi
Dew Point: 32°   Wind: 14mph
Humidity: 35%   Direction: 200°SSW
Pressure: 30.17"   Gusts: NA
Location:  37.86°N, 84.66°W
Report Text: KLEX 222054Z 20012KT 10SM SCT075 16/00 A3017 RMK AO2 SLP218 T01560000 56018
Loading
Personal Weather Stations






























Interactive Weather Map New forecast layout! Learn more

10-Day Weather Forecast

Advertisements
Track Severe Weather on mobile